Besiktas Bosphorus — TCOG3 — position and weather

sailwx.info

Track history (hours):
 
Tides and Currents Weather Stations Pressure Air Temp Water Temp Dewpoint Dewpoint Depression Visibility Wind Speed Wind Dir Waves Ship Positions

Besiktas Bosphorus

Last reported at 2015-May-30 18:33 UTC. Time now 2015-May-30 22:45 UTC.
Position N 40°51' E 029°16'.

Length 274 m; draft 9 m.

Type: Ship (hazmat cat A). MMSI: 271000817.

Date/timePositionNaut miles runAvg speedWind from/ knotsBaromVisibWave heightAir tempDewpointWater temp
2015-May-30 18:33N 40°51' E 029°16'1 0.9
2015-May-30 17:33N 40°51' E 029°15'3 3.0
2015-May-30 16:29N 40°49' E 029°12'0 0.0
2015-May-30 15:29N 40°49' E 029°12'0 0.1
2015-May-30 14:17N 40°49' E 029°12'0 0.0
2015-May-30 13:29N 40°49' E 029°12'0 0.0
2015-May-30 12:29N 40°49' E 029°12'0 0.1
2015-May-30 11:11N 40°50' E 029°12'0 0.0
2015-May-30 10:23N 40°50' E 029°12'0 0.0
2015-May-30 09:29N 40°50' E 029°12'0 0.0
2015-May-30 08:29N 40°50' E 029°12'0 0.0
2015-May-30 07:29N 40°50' E 029°12'0 0.1
2015-May-30 06:29N 40°49' E 029°12'0 0.0
2015-May-30 05:29N 40°49' E 029°12'0 0.0
2015-May-30 04:29N 40°49' E 029°12'0 0.0
2015-May-30 03:29N 40°49' E 029°12'0 0.3
2015-May-30 02:33N 40°49' E 029°12'4 4.2
2015-May-30 01:33N 40°47' E 029°07'6 6.1
2015-May-30 00:32N 40°48' E 028°59'5 5.2
2015-May-29 23:33N 40°51' E 028°54'0 0.2
2015-May-29 22:33N 40°51' E 028°54'0 0.4
2015-May-29 21:31N 40°51' E 028°54'10 9.8
2015-May-29 20:32N 40°50' E 028°41'  
2015-May-26 15:14N 39°52' E 025°56'913.1
2015-May-26 14:33N 39°44' E 025°50'161 6.2
2015-May-25 12:26N 37°22' E 024°14'41 9.4
2015-May-25 08:04N 36°43' E 024°01'445 8.8
2015-May-23 05:33N 36°23' E 014°47'9 8.7
2015-May-23 04:33N 36°24' E 014°37'9 9.0
2015-May-23 03:33N 36°29' E 014°27'9 8.7
2015-May-23 02:33N 36°34' E 014°18'9 8.5
2015-May-23 01:33N 36°38' E 014°09'8 8.5
2015-May-23 00:33N 36°43' E 013°60'9 8.8
2015-May-22 23:33N 36°47' E 013°51'9 9.3
2015-May-22 22:33N 36°52' E 013°41'9 9.4
2015-May-22 21:33N 36°57' E 013°31'14 9.6
2015-May-22 20:07N 37°04' E 013°16'45 9.1
2015-May-22 15:11N 37°30' E 012°29'810.0
2015-May-22 14:21N 37°35' E 012°21'911.0
2015-May-22 13:33N 37°41' E 012°13'9 9.3
2015-May-22 12:33N 37°48' E 012°05'20 8.6
2015-May-22 10:16N 38°05' E 011°52'307 8.8
2015-May-20 23:22N 42°59' E 009°55'6 7.8
2015-May-20 22:33N 43°04' E 009°58'7 6.7
2015-May-20 21:33N 43°11' E 010°02'6 6.3
2015-May-20 20:33N 43°17' E 010°05'6 6.1
2015-May-20 19:33N 43°22' E 010°07'7 6.7
2015-May-20 18:33N 43°29' E 010°11'  
Track history (hours):
 
Tides and Currents Weather Stations Pressure Air Temp Water Temp Dewpoint Dewpoint Depression Visibility Wind Speed Wind Dir Waves Ship Positions

Besiktas Bosphorus

Last reported at 2015-May-30 18:33 UTC. Time now 2015-May-30 22:45 UTC.
Position N 40°51' E 029°16'.

Length 274 m; draft 9 m.

Type: Ship (hazmat cat A). MMSI: 271000817.

Date/timePositionNaut miles runAvg speedWind from/ knotsBaromVisibWave heightAir tempDewpointWater temp
2015-May-30 18:33N 40°51' E 029°16'1 0.9
2015-May-30 17:33N 40°51' E 029°15'3 3.0
2015-May-30 16:29N 40°49' E 029°12'0 0.0
2015-May-30 15:29N 40°49' E 029°12'0 0.1
2015-May-30 14:17N 40°49' E 029°12'0 0.0
2015-May-30 13:29N 40°49' E 029°12'0 0.0
2015-May-30 12:29N 40°49' E 029°12'0 0.1
2015-May-30 11:11N 40°50' E 029°12'0 0.0
2015-May-30 10:23N 40°50' E 029°12'0 0.0
2015-May-30 09:29N 40°50' E 029°12'0 0.0
2015-May-30 08:29N 40°50' E 029°12'0 0.0
2015-May-30 07:29N 40°50' E 029°12'0 0.1
2015-May-30 06:29N 40°49' E 029°12'0 0.0
2015-May-30 05:29N 40°49' E 029°12'0 0.0
2015-May-30 04:29N 40°49' E 029°12'0 0.0
2015-May-30 03:29N 40°49' E 029°12'0 0.3
2015-May-30 02:33N 40°49' E 029°12'4 4.2
2015-May-30 01:33N 40°47' E 029°07'6 6.1
2015-May-30 00:32N 40°48' E 028°59'5 5.2
2015-May-29 23:33N 40°51' E 028°54'0 0.2
2015-May-29 22:33N 40°51' E 028°54'0 0.4
2015-May-29 21:31N 40°51' E 028°54'10 9.8
2015-May-29 20:32N 40°50' E 028°41'  
2015-May-26 15:14N 39°52' E 025°56'913.1
2015-May-26 14:33N 39°44' E 025°50'161 6.2
2015-May-25 12:26N 37°22' E 024°14'41 9.4
2015-May-25 08:04N 36°43' E 024°01'445 8.8
2015-May-23 05:33N 36°23' E 014°47'9 8.7
2015-May-23 04:33N 36°24' E 014°37'9 9.0
2015-May-23 03:33N 36°29' E 014°27'9 8.7
2015-May-23 02:33N 36°34' E 014°18'9 8.5
2015-May-23 01:33N 36°38' E 014°09'8 8.5
2015-May-23 00:33N 36°43' E 013°60'9 8.8
2015-May-22 23:33N 36°47' E 013°51'9 9.3
2015-May-22 22:33N 36°52' E 013°41'9 9.4
2015-May-22 21:33N 36°57' E 013°31'14 9.6
2015-May-22 20:07N 37°04' E 013°16'45 9.1
2015-May-22 15:11N 37°30' E 012°29'810.0
2015-May-22 14:21N 37°35' E 012°21'911.0
2015-May-22 13:33N 37°41' E 012°13'9 9.3
2015-May-22 12:33N 37°48' E 012°05'20 8.6
2015-May-22 10:16N 38°05' E 011°52'307 8.8
2015-May-20 23:22N 42°59' E 009°55'6 7.8
2015-May-20 22:33N 43°04' E 009°58'7 6.7
2015-May-20 21:33N 43°11' E 010°02'6 6.3
2015-May-20 20:33N 43°17' E 010°05'6 6.1
2015-May-20 19:33N 43°22' E 010°07'7 6.7
2015-May-20 18:33N 43°29' E 010°11'  

Dump ship's entire track history